PWSweather.com
Personal Weather Stations
Station Observations

YeovilGB

Lat: 50.949, Lon: -2.627

Elevation: 70

Station Type: Vantage Pro

http://www.yeovil-weather.me.uk/

High Low Average
Temperature 51.6°F10.9°C 46.3°F7.9°C 49.8°F9.9°C
Dew Point 49.2°F9.6°C 40.9°F4.9°C 45.5°F7.5°C
Winds 19.6 mph 31.5 kmh Calm Calm 6.0 mph SSW9.7 kmh SSW
Wind Gusts 27.6 mph44.4 kmh -- 10.0 mph16.1 kmh
Humidity 94% 78% 85%
Pressure 30.52 in1033.5 mb 30.00 in1015.9 mb -
Precipitation 0.02 in0.5 mm - -
Hour Temp Dew Point Humidity Winds Wind Gusts Pressure Precip Precip Rate Daily Precip Total
12:00 AM 46.4°F8.0°C 40.9°F4.9°C 81% Calm Calm -- 30.52 in1033.5 mb - 0.00 in0.0 mm 0.00 in0.0 mm
12:10 AM 46.3°F7.9°C 41.1°F5.1°C 82% Calm Calm -- 30.52 in1033.5 mb - 0.00 in0.0 mm 0.00 in0.0 mm
12:20 AM 46.3°F7.9°C 41.1°F5.1°C 82% Calm Calm -- 30.52 in1033.5 mb - 0.00 in0.0 mm 0.00 in0.0 mm
12:30 AM 46.3°F7.9°C 41.4°F5.2°C 83% Calm Calm 1.2 mph1.9 kmh 30.51 in1033.2 mb - 0.00 in0.0 mm 0.00 in0.0 mm
12:40 AM 46.4°F8.0°C 41.9°F5.5°C 84% 1.2 mph S1.9 kmh S 2.3 mph3.7 kmh 30.51 in1033.2 mb - 0.00 in0.0 mm 0.00 in0.0 mm
12:50 AM 46.6°F8.1°C 42.1°F5.6°C 84% 1.2 mph S1.9 kmh S 3.5 mph5.6 kmh 30.51 in1033.2 mb - 0.00 in0.0 mm 0.00 in0.0 mm
01:00 AM 46.8°F8.2°C 42.2°F5.7°C 84% Calm Calm 3.5 mph5.6 kmh 30.51 in1033.2 mb - 0.00 in0.0 mm 0.00 in0.0 mm
01:10 AM 47.1°F8.4°C 42.5°F5.8°C 84% 2.3 mph S3.7 kmh S 6.9 mph11.1 kmh 30.50 in1032.8 mb - 0.00 in0.0 mm 0.00 in0.0 mm
01:20 AM 47.3°F8.5°C 42.7°F5.9°C 84% Calm Calm 3.5 mph5.6 kmh 30.50 in1032.8 mb - 0.00 in0.0 mm 0.00 in0.0 mm
01:30 AM 47.4°F8.6°C 42.8°F6.0°C 84% 2.3 mph S3.7 kmh S 5.8 mph9.3 kmh 30.50 in1032.8 mb - 0.00 in0.0 mm 0.00 in0.0 mm
01:40 AM 47.6°F8.7°C 43.0°F6.1°C 84% 3.5 mph S5.6 kmh S 5.8 mph9.3 kmh 30.49 in1032.5 mb - 0.00 in0.0 mm 0.00 in0.0 mm
01:50 AM 47.8°F8.8°C 43.2°F6.2°C 84% 3.5 mph SSW5.6 kmh SSW 5.8 mph9.3 kmh 30.49 in1032.5 mb - 0.00 in0.0 mm 0.00 in0.0 mm
02:00 AM 47.8°F8.8°C 43.2°F6.2°C 84% 1.2 mph S1.9 kmh S 1.2 mph1.9 kmh 30.49 in1032.5 mb - 0.00 in0.0 mm 0.00 in0.0 mm
02:10 AM 47.9°F8.8°C 43.3°F6.3°C 84% Calm Calm -- 30.49 in1032.5 mb - 0.00 in0.0 mm 0.00 in0.0 mm
02:20 AM 47.8°F8.8°C 43.2°F6.2°C 84% Calm Calm -- 30.49 in1032.5 mb - 0.00 in0.0 mm 0.00 in0.0 mm
02:30 AM 47.7°F8.7°C 43.4°F6.3°C 85% Calm Calm -- 30.48 in1032.2 mb - 0.00 in0.0 mm 0.00 in0.0 mm
02:40 AM 47.6°F8.7°C 43.3°F6.3°C 85% Calm Calm -- 30.48 in1032.2 mb - 0.00 in0.0 mm 0.00 in0.0 mm
02:50 AM 47.7°F8.7°C 43.7°F6.5°C 86% Calm Calm 2.3 mph3.7 kmh 30.48 in1032.2 mb - 0.00 in0.0 mm 0.00 in0.0 mm
03:00 AM 47.8°F8.8°C 43.8°F6.6°C 86% 1.2 mph SSW1.9 kmh SSW 3.5 mph5.6 kmh 30.48 in1032.2 mb - 0.00 in0.0 mm 0.00 in0.0 mm
03:10 AM 48.0°F8.9°C 43.4°F6.3°C 84% 5.8 mph SW9.3 kmh SW 9.2 mph14.8 kmh 30.47 in1031.8 mb - 0.00 in0.0 mm 0.00 in0.0 mm
03:20 AM 48.3°F9.1°C 43.4°F6.3°C 83% 2.3 mph SW3.7 kmh SW 5.8 mph9.3 kmh 30.47 in1031.8 mb - 0.00 in0.0 mm 0.00 in0.0 mm
03:30 AM 48.7°F9.3°C 43.2°F6.2°C 81% 5.8 mph SW9.3 kmh SW 8.1 mph13.0 kmh 30.46 in1031.5 mb - 0.00 in0.0 mm 0.00 in0.0 mm
03:40 AM 49.2°F9.6°C 42.6°F5.9°C 78% 3.5 mph SW5.6 kmh SW 4.6 mph7.4 kmh 30.46 in1031.5 mb - 0.00 in0.0 mm 0.00 in0.0 mm
03:50 AM 49.3°F9.6°C 42.7°F5.9°C 78% 2.3 mph SW3.7 kmh SW 4.6 mph7.4 kmh 30.46 in1031.5 mb - 0.00 in0.0 mm 0.00 in0.0 mm
04:00 AM 49.2°F9.6°C 42.6°F5.9°C 78% 1.2 mph SSW1.9 kmh SSW 2.3 mph3.7 kmh 30.46 in1031.5 mb - 0.00 in0.0 mm 0.00 in0.0 mm
04:10 AM 49.1°F9.5°C 42.9°F6.1°C 79% Calm Calm -- 30.45 in1031.2 mb - 0.00 in0.0 mm 0.00 in0.0 mm
04:20 AM 48.8°F9.3°C 42.6°F5.9°C 79% Calm Calm 2.3 mph3.7 kmh 30.45 in1031.2 mb - 0.00 in0.0 mm 0.00 in0.0 mm
04:30 AM 48.7°F9.3°C 42.5°F5.8°C 79% 1.2 mph SW1.9 kmh SW 3.5 mph5.6 kmh 30.45 in1031.2 mb - 0.00 in0.0 mm 0.00 in0.0 mm
04:40 AM 48.6°F9.2°C 42.7°F5.9°C 80% Calm Calm -- 30.45 in1031.2 mb - 0.00 in0.0 mm 0.00 in0.0 mm
04:50 AM 48.6°F9.2°C 42.7°F5.9°C 80% Calm Calm -- 30.44 in1030.8 mb - 0.00 in0.0 mm 0.00 in0.0 mm
05:00 AM 48.5°F9.2°C 42.6°F5.9°C 80% Calm Calm 2.3 mph3.7 kmh 30.44 in1030.8 mb - 0.00 in0.0 mm 0.00 in0.0 mm
05:10 AM 48.6°F9.2°C 42.7°F5.9°C 80% Calm Calm 2.3 mph3.7 kmh 30.43 in1030.5 mb - 0.00 in0.0 mm 0.00 in0.0 mm
05:20 AM 48.6°F9.2°C 42.7°F5.9°C 80% 1.2 mph SW1.9 kmh SW 2.3 mph3.7 kmh 30.43 in1030.5 mb - 0.00 in0.0 mm 0.00 in0.0 mm
05:30 AM 48.9°F9.4°C 42.6°F5.9°C 79% 3.5 mph SW5.6 kmh SW 4.6 mph7.4 kmh 30.43 in1030.5 mb - 0.00 in0.0 mm 0.00 in0.0 mm
05:40 AM 49.0°F9.4°C 43.1°F6.2°C 80% 1.2 mph S1.9 kmh S 3.5 mph5.6 kmh 30.43 in1030.5 mb - 0.00 in0.0 mm 0.00 in0.0 mm
05:50 AM 49.1°F9.5°C 42.9°F6.1°C 79% 3.5 mph S5.6 kmh S 5.8 mph9.3 kmh 30.42 in1030.1 mb - 0.00 in0.0 mm 0.00 in0.0 mm
06:00 AM 49.2°F9.6°C 43.0°F6.1°C 79% 1.2 mph S1.9 kmh S -- 30.42 in1030.1 mb - 0.00 in0.0 mm 0.00 in0.0 mm
06:10 AM 49.2°F9.6°C 43.0°F6.1°C 79% Calm Calm -- 30.42 in1030.1 mb - 0.00 in0.0 mm 0.00 in0.0 mm
06:20 AM 49.2°F9.6°C 43.3°F6.3°C 80% 1.2 mph S1.9 kmh S 4.6 mph7.4 kmh 30.42 in1030.1 mb - 0.00 in0.0 mm 0.00 in0.0 mm
06:30 AM 49.2°F9.6°C 43.3°F6.3°C 80% 1.2 mph S1.9 kmh S 2.3 mph3.7 kmh 30.42 in1030.1 mb - 0.00 in0.0 mm 0.00 in0.0 mm
06:40 AM 49.2°F9.6°C 43.3°F6.3°C 80% Calm Calm 1.2 mph1.9 kmh 30.42 in1030.1 mb - 0.00 in0.0 mm 0.00 in0.0 mm
06:50 AM 49.1°F9.5°C 43.5°F6.4°C 81% 3.5 mph SSW5.6 kmh SSW 4.6 mph7.4 kmh 30.42 in1030.1 mb - 0.00 in0.0 mm 0.00 in0.0 mm
07:00 AM 49.2°F9.6°C 43.6°F6.4°C 81% Calm Calm -- 30.41 in1029.8 mb - 0.00 in0.0 mm 0.00 in0.0 mm
07:10 AM 49.3°F9.6°C 44.0°F6.7°C 82% 1.2 mph SW1.9 kmh SW 3.5 mph5.6 kmh 30.41 in1029.8 mb - 0.00 in0.0 mm 0.00 in0.0 mm
07:20 AM 49.3°F9.6°C 44.4°F6.9°C 83% 1.2 mph SW1.9 kmh SW 3.5 mph5.6 kmh 30.41 in1029.8 mb - 0.00 in0.0 mm 0.00 in0.0 mm
07:30 AM 49.4°F9.7°C 44.5°F6.9°C 83% 1.2 mph SSW1.9 kmh SSW 1.2 mph1.9 kmh 30.41 in1029.8 mb - 0.00 in0.0 mm 0.00 in0.0 mm
07:40 AM 49.4°F9.7°C 44.8°F7.1°C 84% 1.2 mph SW1.9 kmh SW 3.5 mph5.6 kmh 30.41 in1029.8 mb - 0.00 in0.0 mm 0.00 in0.0 mm
07:50 AM 49.3°F9.6°C 44.7°F7.1°C 84% 2.3 mph SSW3.7 kmh SSW 4.6 mph7.4 kmh 30.41 in1029.8 mb - 0.00 in0.0 mm 0.00 in0.0 mm
08:00 AM 49.3°F9.6°C 45.0°F7.2°C 85% 1.2 mph SSW1.9 kmh SSW 3.5 mph5.6 kmh 30.41 in1029.8 mb - 0.00 in0.0 mm 0.00 in0.0 mm
08:10 AM 49.2°F9.6°C 44.9°F7.2°C 85% 4.6 mph SW7.4 kmh SW 8.1 mph13.0 kmh 30.41 in1029.8 mb - 0.00 in0.0 mm 0.00 in0.0 mm
08:20 AM 49.4°F9.7°C 45.4°F7.4°C 86% 5.8 mph SW9.3 kmh SW 9.2 mph14.8 kmh 30.41 in1029.8 mb - 0.00 in0.0 mm 0.00 in0.0 mm
08:30 AM 49.4°F9.7°C 45.7°F7.6°C 87% 4.6 mph SSW7.4 kmh SSW 11.5 mph18.5 kmh 30.41 in1029.8 mb - 0.00 in0.0 mm 0.00 in0.0 mm
08:40 AM 49.2°F9.6°C 45.5°F7.5°C 87% 2.3 mph SSW3.7 kmh SSW 5.8 mph9.3 kmh 30.40 in1029.5 mb - 0.00 in0.0 mm 0.00 in0.0 mm
08:50 AM 49.0°F9.4°C 45.0°F7.2°C 86% 3.5 mph S5.6 kmh S 8.1 mph13.0 kmh 30.40 in1029.5 mb - 0.00 in0.0 mm 0.00 in0.0 mm
09:00 AM 49.1°F9.5°C 44.8°F7.1°C 85% 1.2 mph SW1.9 kmh SW 6.9 mph11.1 kmh 30.40 in1029.5 mb - 0.00 in0.0 mm 0.00 in0.0 mm
09:10 AM 49.3°F9.6°C 45.0°F7.2°C 85% Calm Calm 4.6 mph7.4 kmh 30.40 in1029.5 mb - 0.00 in0.0 mm 0.00 in0.0 mm
09:20 AM 49.6°F9.8°C 45.2°F7.3°C 85% 2.3 mph S3.7 kmh S 3.5 mph5.6 kmh 30.40 in1029.5 mb - 0.00 in0.0 mm 0.00 in0.0 mm
09:30 AM 49.7°F9.8°C 45.7°F7.6°C 86% 1.2 mph SSW1.9 kmh SSW 4.6 mph7.4 kmh 30.40 in1029.5 mb - 0.00 in0.0 mm 0.00 in0.0 mm
09:40 AM 49.9°F9.9°C 46.2°F7.9°C 87% 1.2 mph S1.9 kmh S 4.6 mph7.4 kmh 30.39 in1029.1 mb - 0.00 in0.0 mm 0.00 in0.0 mm
09:50 AM 50.2°F10.1°C 46.1°F7.8°C 86% 2.3 mph SSW3.7 kmh SSW 5.8 mph9.3 kmh 30.39 in1029.1 mb - 0.00 in0.0 mm 0.00 in0.0 mm
10:00 AM 50.3°F10.2°C 46.0°F7.8°C 85% 6.9 mph SSW11.1 kmh SSW 10.4 mph16.7 kmh 30.40 in1029.5 mb - 0.00 in0.0 mm 0.00 in0.0 mm
10:10 AM 50.1°F10.1°C 45.8°F7.7°C 85% 1.2 mph S1.9 kmh S 5.8 mph9.3 kmh 30.40 in1029.5 mb - 0.00 in0.0 mm 0.00 in0.0 mm
10:20 AM 50.1°F10.1°C 46.0°F7.8°C 86% 5.8 mph SSW9.3 kmh SSW 11.5 mph18.5 kmh 30.40 in1029.5 mb - 0.00 in0.0 mm 0.00 in0.0 mm
10:30 AM 49.8°F9.9°C 45.4°F7.4°C 85% 4.6 mph SSW7.4 kmh SSW 9.2 mph14.8 kmh 30.39 in1029.1 mb - 0.00 in0.0 mm 0.00 in0.0 mm
10:40 AM 49.7°F9.8°C 45.4°F7.4°C 85% 2.3 mph SSW3.7 kmh SSW 10.4 mph16.7 kmh 30.39 in1029.1 mb - 0.00 in0.0 mm 0.00 in0.0 mm
10:50 AM 49.7°F9.8°C 45.4°F7.4°C 85% 4.6 mph SW7.4 kmh SW 6.9 mph11.1 kmh 30.39 in1029.1 mb - 0.00 in0.0 mm 0.00 in0.0 mm
11:00 AM 49.7°F9.8°C 45.3°F7.4°C 85% 2.3 mph S3.7 kmh S 6.9 mph11.1 kmh 30.38 in1028.8 mb - 0.00 in0.0 mm 0.00 in0.0 mm
11:10 AM 49.8°F9.9°C 45.2°F7.3°C 84% 2.3 mph S3.7 kmh S 11.5 mph18.5 kmh 30.38 in1028.8 mb - 0.00 in0.0 mm 0.00 in0.0 mm
11:20 AM 50.1°F10.1°C 44.5°F6.9°C 81% 1.2 mph S1.9 kmh S 1.2 mph1.9 kmh 30.37 in1028.4 mb - 0.00 in0.0 mm 0.00 in0.0 mm
11:30 AM 50.4°F10.2°C 44.1°F6.7°C 79% 4.6 mph SSW7.4 kmh SSW 11.5 mph18.5 kmh 30.37 in1028.4 mb - 0.00 in0.0 mm 0.00 in0.0 mm
11:40 AM 50.6°F10.3°C 44.3°F6.8°C 79% 4.6 mph SSW7.4 kmh SSW 10.4 mph16.7 kmh 30.36 in1028.1 mb - 0.00 in0.0 mm 0.00 in0.0 mm
11:50 AM 50.9°F10.5°C 44.9°F7.2°C 80% 8.1 mph SSW13.0 kmh SSW 12.7 mph20.4 kmh 30.36 in1028.1 mb - 0.00 in0.0 mm 0.00 in0.0 mm
12:00 PM 51.0°F10.6°C 45.0°F7.2°C 80% 8.1 mph SSW13.0 kmh SSW 11.5 mph18.5 kmh 30.35 in1027.8 mb - 0.00 in0.0 mm 0.00 in0.0 mm
12:10 PM 51.0°F10.6°C 45.0°F7.2°C 80% 2.3 mph SSW3.7 kmh SSW 5.8 mph9.3 kmh 30.34 in1027.4 mb - 0.00 in0.0 mm 0.00 in0.0 mm
12:20 PM 51.1°F10.6°C 45.1°F7.3°C 80% 2.3 mph S3.7 kmh S 3.5 mph5.6 kmh 30.33 in1027.1 mb - 0.00 in0.0 mm 0.00 in0.0 mm
12:30 PM 51.3°F10.7°C 45.3°F7.4°C 80% Calm Calm -- 30.33 in1027.1 mb - 0.00 in0.0 mm 0.00 in0.0 mm
12:40 PM 51.4°F10.8°C 45.1°F7.3°C 79% 3.5 mph SSW5.6 kmh SSW 10.4 mph16.7 kmh 30.33 in1027.1 mb - 0.00 in0.0 mm 0.00 in0.0 mm
12:50 PM 51.6°F10.9°C 45.6°F7.6°C 80% 3.5 mph SSW5.6 kmh SSW 8.1 mph13.0 kmh 30.32 in1026.8 mb - 0.00 in0.0 mm 0.00 in0.0 mm
01:00 PM 51.6°F10.9°C 46.0°F7.8°C 81% 1.2 mph S1.9 kmh S 4.6 mph7.4 kmh 30.32 in1026.8 mb - 0.00 in0.0 mm 0.00 in0.0 mm
01:10 PM 51.5°F10.8°C 46.8°F8.2°C 84% 5.8 mph S9.3 kmh S 9.2 mph14.8 kmh 30.31 in1026.4 mb - 0.00 in0.0 mm 0.00 in0.0 mm
01:20 PM 51.4°F10.8°C 47.0°F8.3°C 85% 6.9 mph S11.1 kmh S 11.5 mph18.5 kmh 30.31 in1026.4 mb - 0.00 in0.0 mm 0.00 in0.0 mm
01:30 PM 51.2°F10.7°C 47.5°F8.6°C 87% 10.4 mph S16.7 kmh S 19.6 mph31.5 kmh 30.31 in1026.4 mb - 0.00 in0.0 mm 0.00 in0.0 mm
01:40 PM 50.9°F10.5°C 47.7°F8.7°C 89% 6.9 mph S11.1 kmh S 11.5 mph18.5 kmh 30.30 in1026.1 mb - 0.01 in0.3 mm 0.01 in0.3 mm
01:50 PM 50.4°F10.2°C 47.6°F8.7°C 90% 5.8 mph SSW9.3 kmh SSW 8.1 mph13.0 kmh 30.30 in1026.1 mb - 0.00 in0.0 mm 0.01 in0.3 mm
02:00 PM 50.1°F10.1°C 47.6°F8.7°C 91% 6.9 mph S11.1 kmh S 11.5 mph18.5 kmh 30.29 in1025.7 mb - 0.00 in0.0 mm 0.01 in0.3 mm
02:10 PM 50.0°F10.0°C 47.7°F8.7°C 92% 5.8 mph S9.3 kmh S 11.5 mph18.5 kmh 30.28 in1025.4 mb - 0.00 in0.0 mm 0.01 in0.3 mm
02:20 PM 49.9°F9.9°C 47.7°F8.7°C 92% 8.1 mph SSW13.0 kmh SSW 12.7 mph20.4 kmh 30.28 in1025.4 mb - 0.00 in0.0 mm 0.01 in0.3 mm
02:30 PM 49.8°F9.9°C 47.6°F8.7°C 92% 5.8 mph S9.3 kmh S 9.2 mph14.8 kmh 30.28 in1025.4 mb - 0.00 in0.0 mm 0.01 in0.3 mm
02:40 PM 49.7°F9.8°C 47.2°F8.4°C 91% 6.9 mph S11.1 kmh S 11.5 mph18.5 kmh 30.27 in1025.1 mb - 0.00 in0.0 mm 0.01 in0.3 mm
02:50 PM 49.8°F9.9°C 47.3°F8.5°C 91% 6.9 mph S11.1 kmh S 10.4 mph16.7 kmh 30.27 in1025.1 mb - 0.00 in0.0 mm 0.01 in0.3 mm
03:00 PM 49.9°F9.9°C 47.1°F8.4°C 90% 6.9 mph SSW11.1 kmh SSW 11.5 mph18.5 kmh 30.26 in1024.7 mb - 0.00 in0.0 mm 0.01 in0.3 mm
03:10 PM 49.9°F9.9°C 46.8°F8.2°C 89% 8.1 mph S13.0 kmh S 11.5 mph18.5 kmh 30.26 in1024.7 mb - 0.00 in0.0 mm 0.01 in0.3 mm
03:20 PM 50.0°F10.0°C 46.6°F8.1°C 88% 4.6 mph S7.4 kmh S 11.5 mph18.5 kmh 30.25 in1024.4 mb - 0.00 in0.0 mm 0.01 in0.3 mm
03:30 PM 50.1°F10.1°C 46.1°F7.8°C 86% 8.1 mph SSW13.0 kmh SSW 10.4 mph16.7 kmh 30.25 in1024.4 mb - 0.00 in0.0 mm 0.01 in0.3 mm
03:40 PM 50.3°F10.2°C 46.3°F7.9°C 86% 11.5 mph S18.5 kmh S 16.1 mph25.9 kmh 30.25 in1024.4 mb - 0.00 in0.0 mm 0.01 in0.3 mm
03:50 PM 50.4°F10.2°C 46.1°F7.8°C 85% 8.1 mph SSW13.0 kmh SSW 19.6 mph31.5 kmh 30.25 in1024.4 mb - 0.00 in0.0 mm 0.01 in0.3 mm
04:00 PM 50.4°F10.2°C 46.1°F7.8°C 85% 9.2 mph S14.8 kmh S 15.0 mph24.1 kmh 30.24 in1024.0 mb - 0.00 in0.0 mm 0.01 in0.3 mm
04:10 PM 50.4°F10.2°C 46.1°F7.8°C 85% 9.2 mph S14.8 kmh S 11.5 mph18.5 kmh 30.24 in1024.0 mb - 0.00 in0.0 mm 0.01 in0.3 mm
04:20 PM 50.3°F10.2°C 46.0°F7.8°C 85% 9.2 mph S14.8 kmh S 12.7 mph20.4 kmh 30.23 in1023.7 mb - 0.00 in0.0 mm 0.01 in0.3 mm
04:30 PM 50.2°F10.1°C 46.2°F7.9°C 86% 10.4 mph SSW16.7 kmh SSW 13.8 mph22.2 kmh 30.22 in1023.4 mb - 0.00 in0.0 mm 0.01 in0.3 mm
04:40 PM 50.1°F10.1°C 46.1°F7.8°C 86% 6.9 mph S11.1 kmh S 18.4 mph29.6 kmh 30.22 in1023.4 mb - 0.00 in0.0 mm 0.01 in0.3 mm
04:50 PM 50.1°F10.1°C 46.1°F7.8°C 86% 8.1 mph S13.0 kmh S 13.8 mph22.2 kmh 30.21 in1023.0 mb - 0.00 in0.0 mm 0.01 in0.3 mm
05:00 PM 50.1°F10.1°C 46.1°F7.8°C 86% 6.9 mph S11.1 kmh S 11.5 mph18.5 kmh 30.21 in1023.0 mb - 0.00 in0.0 mm 0.01 in0.3 mm
05:10 PM 50.2°F10.1°C 46.2°F7.9°C 86% 10.4 mph S16.7 kmh S 18.4 mph29.6 kmh 30.21 in1023.0 mb - 0.00 in0.0 mm 0.01 in0.3 mm
05:20 PM 50.3°F10.2°C 46.3°F7.9°C 86% 11.5 mph S18.5 kmh S 18.4 mph29.6 kmh 30.21 in1023.0 mb - 0.00 in0.0 mm 0.01 in0.3 mm
05:30 PM 50.4°F10.2°C 46.4°F8.0°C 86% 8.1 mph S13.0 kmh S 9.2 mph14.8 kmh 30.19 in1022.4 mb - 0.00 in0.0 mm 0.01 in0.3 mm
05:40 PM 50.4°F10.2°C 46.4°F8.0°C 86% 10.4 mph S16.7 kmh S 20.7 mph33.3 kmh 30.19 in1022.4 mb - 0.00 in0.0 mm 0.01 in0.3 mm
05:50 PM 50.5°F10.3°C 46.8°F8.2°C 87% 10.4 mph S16.7 kmh S 15.0 mph24.1 kmh 30.19 in1022.4 mb - 0.00 in0.0 mm 0.01 in0.3 mm
06:00 PM 50.6°F10.3°C 46.6°F8.1°C 86% 9.2 mph S14.8 kmh S 11.5 mph18.5 kmh 30.19 in1022.4 mb - 0.00 in0.0 mm 0.01 in0.3 mm
06:10 PM 50.6°F10.3°C 46.9°F8.3°C 87% 5.8 mph S9.3 kmh S 6.9 mph11.1 kmh 30.18 in1022.0 mb - 0.00 in0.0 mm 0.01 in0.3 mm
06:20 PM 50.6°F10.3°C 46.9°F8.3°C 87% 9.2 mph S14.8 kmh S 20.7 mph33.3 kmh 30.18 in1022.0 mb - 0.00 in0.0 mm 0.01 in0.3 mm
06:30 PM 50.7°F10.4°C 47.0°F8.3°C 87% 4.6 mph S7.4 kmh S 11.5 mph18.5 kmh 30.17 in1021.7 mb - 0.00 in0.0 mm 0.01 in0.3 mm
06:40 PM 50.8°F10.4°C 47.1°F8.4°C 87% 11.5 mph SSW18.5 kmh SSW 16.1 mph25.9 kmh 30.16 in1021.3 mb - 0.00 in0.0 mm 0.01 in0.3 mm
06:50 PM 51.0°F10.6°C 46.9°F8.3°C 86% 12.7 mph S20.4 kmh S 19.6 mph31.5 kmh 30.16 in1021.3 mb - 0.00 in0.0 mm 0.01 in0.3 mm
07:00 PM 51.1°F10.6°C 47.0°F8.3°C 86% 10.4 mph S16.7 kmh S 18.4 mph29.6 kmh 30.15 in1021.0 mb - 0.00 in0.0 mm 0.01 in0.3 mm
07:10 PM 51.1°F10.6°C 47.4°F8.6°C 87% 10.4 mph SSW16.7 kmh SSW 18.4 mph29.6 kmh 30.14 in1020.7 mb - 0.00 in0.0 mm 0.01 in0.3 mm
07:20 PM 51.1°F10.6°C 47.4°F8.6°C 87% 12.7 mph SSW20.4 kmh SSW 18.4 mph29.6 kmh 30.14 in1020.7 mb - 0.00 in0.0 mm 0.01 in0.3 mm
07:30 PM 51.2°F10.7°C 47.5°F8.6°C 87% 10.4 mph SSW16.7 kmh SSW 11.5 mph18.5 kmh 30.13 in1020.3 mb - 0.00 in0.0 mm 0.01 in0.3 mm
07:40 PM 51.2°F10.7°C 47.5°F8.6°C 87% 12.7 mph S20.4 kmh S 18.4 mph29.6 kmh 30.13 in1020.3 mb - 0.00 in0.0 mm 0.01 in0.3 mm
07:50 PM 51.2°F10.7°C 47.5°F8.6°C 87% 10.4 mph S16.7 kmh S 15.0 mph24.1 kmh 30.13 in1020.3 mb - 0.00 in0.0 mm 0.01 in0.3 mm
08:00 PM 51.2°F10.7°C 47.8°F8.8°C 88% 10.4 mph SSW16.7 kmh SSW 19.6 mph31.5 kmh 30.12 in1020.0 mb - 0.00 in0.0 mm 0.01 in0.3 mm
08:10 PM 51.1°F10.6°C 48.0°F8.9°C 89% 10.4 mph S16.7 kmh S 18.4 mph29.6 kmh 30.12 in1020.0 mb - 0.00 in0.0 mm 0.01 in0.3 mm
08:20 PM 51.1°F10.6°C 48.0°F8.9°C 89% 8.1 mph S13.0 kmh S 18.4 mph29.6 kmh 30.12 in1020.0 mb - 0.00 in0.0 mm 0.01 in0.3 mm
08:30 PM 51.2°F10.7°C 48.1°F8.9°C 89% 12.7 mph S20.4 kmh S 25.3 mph40.7 kmh 30.12 in1020.0 mb - 0.00 in0.0 mm 0.01 in0.3 mm
08:40 PM 51.3°F10.7°C 48.1°F8.9°C 89% 10.4 mph SSW16.7 kmh SSW 16.1 mph25.9 kmh 30.11 in1019.6 mb - 0.00 in0.0 mm 0.01 in0.3 mm
08:50 PM 51.3°F10.7°C 48.2°F9.0°C 89% 19.6 mph S31.5 kmh S 26.5 mph42.6 kmh 30.11 in1019.6 mb - 0.00 in0.0 mm 0.01 in0.3 mm
09:00 PM 51.3°F10.7°C 48.2°F9.0°C 89% 12.7 mph S20.4 kmh S 19.6 mph31.5 kmh 30.10 in1019.3 mb - 0.00 in0.0 mm 0.01 in0.3 mm
09:10 PM 51.3°F10.7°C 48.2°F9.0°C 89% 12.7 mph S20.4 kmh S 18.4 mph29.6 kmh 30.09 in1019.0 mb - 0.00 in0.0 mm 0.01 in0.3 mm
09:20 PM 51.4°F10.8°C 48.3°F9.1°C 89% 16.1 mph SSW25.9 kmh SSW 26.5 mph42.6 kmh 30.09 in1019.0 mb - 0.00 in0.0 mm 0.01 in0.3 mm
09:30 PM 51.4°F10.8°C 48.3°F9.1°C 89% 15.0 mph S24.1 kmh S 27.6 mph44.4 kmh 30.08 in1018.6 mb - 0.00 in0.0 mm 0.01 in0.3 mm
09:40 PM 51.4°F10.8°C 48.3°F9.1°C 89% 12.7 mph S20.4 kmh S 24.2 mph38.9 kmh 30.07 in1018.3 mb - 0.00 in0.0 mm 0.01 in0.3 mm
09:50 PM 51.4°F10.8°C 48.5°F9.2°C 90% 12.7 mph SSW20.4 kmh SSW 19.6 mph31.5 kmh 30.07 in1018.3 mb - 0.00 in0.0 mm 0.01 in0.3 mm
10:00 PM 51.3°F10.7°C 48.5°F9.2°C 90% 11.5 mph S18.5 kmh S 19.6 mph31.5 kmh 30.07 in1018.3 mb - 0.00 in0.0 mm 0.01 in0.3 mm
10:10 PM 51.2°F10.7°C 48.7°F9.3°C 91% 12.7 mph S20.4 kmh S 19.6 mph31.5 kmh 30.06 in1017.9 mb - 0.00 in0.0 mm 0.01 in0.3 mm
10:20 PM 51.2°F10.7°C 48.7°F9.3°C 91% 15.0 mph S24.1 kmh S 25.3 mph40.7 kmh 30.05 in1017.6 mb - 0.00 in0.0 mm 0.01 in0.3 mm
10:30 PM 51.0°F10.6°C 48.8°F9.3°C 92% 12.7 mph S20.4 kmh S 23.0 mph37.0 kmh 30.05 in1017.6 mb - 0.00 in0.0 mm 0.01 in0.3 mm
10:40 PM 50.9°F10.5°C 48.9°F9.4°C 93% 11.5 mph S18.5 kmh S 19.6 mph31.5 kmh 30.04 in1017.3 mb - 0.00 in0.0 mm 0.01 in0.3 mm
10:50 PM 50.8°F10.4°C 48.8°F9.3°C 93% 11.5 mph SSW18.5 kmh SSW 20.7 mph33.3 kmh 30.04 in1017.3 mb - 0.01 in0.3 mm 0.02 in0.5 mm
11:00 PM 50.8°F10.4°C 49.1°F9.5°C 94% 11.5 mph S18.5 kmh S 20.7 mph33.3 kmh 30.03 in1016.9 mb - 0.00 in0.0 mm 0.02 in0.5 mm
11:10 PM 50.8°F10.4°C 49.1°F9.5°C 94% 12.7 mph S20.4 kmh S 21.9 mph35.2 kmh 30.03 in1016.9 mb - 0.00 in0.0 mm 0.02 in0.5 mm
11:20 PM 50.9°F10.5°C 49.2°F9.6°C 94% 15.0 mph S24.1 kmh S 21.9 mph35.2 kmh 30.02 in1016.6 mb - 0.00 in0.0 mm 0.02 in0.5 mm
11:30 PM 50.9°F10.5°C 49.2°F9.6°C 94% 11.5 mph S18.5 kmh S 19.6 mph31.5 kmh 30.02 in1016.6 mb - 0.00 in0.0 mm 0.02 in0.5 mm
11:40 PM 50.9°F10.5°C 49.2°F9.6°C 94% 12.7 mph S20.4 kmh S 20.7 mph33.3 kmh 30.01 in1016.3 mb - 0.00 in0.0 mm 0.02 in0.5 mm
11:50 PM 50.9°F10.5°C 49.2°F9.6°C 94% 9.2 mph S14.8 kmh S 15.0 mph24.1 kmh 30.00 in1015.9 mb - 0.01 in0.3 mm 0.02 in0.5 mm